Time;durP1;ratioP1;P1;durP2;ratioP2;P2;SDS_P1;SDS_P2;PMS_P1;PMS_P2;Temp;Humidity;BMP_temperature;BMP_pressure;BME280_temperature;BME280_humidity;BME280_pressure;Samples;Min_cycle;Max_cycle;Signal;HPM_P1;HPM_P2
2022/04/26 03:37:29;;;;;;;21.30;11.68;;;;;;;6.48;83.22;101475.69;5064225;28;20094;-56
2022/04/26 03:39:55;;;;;;;21.88;11.52;;;;;;;6.46;83.81;101479.81;5063349;28;20021;-58
2022/04/26 03:42:20;;;;;;;20.60;11.95;;;;;;;6.44;83.94;101474.56;5063645;28;20021;-57
2022/04/26 03:44:45;;;;;;;21.67;12.00;;;;;;;6.43;84.22;101477.56;5063275;28;20045;-57
2022/04/26 03:47:11;;;;;;;20.58;11.90;;;;;;;6.40;84.55;101471.53;5065353;28;20470;-57
2022/04/26 03:49:36;;;;;;;20.13;11.40;;;;;;;6.42;85.21;101476.75;5063705;28;20083;-56
2022/04/26 03:52:02;;;;;;;20.52;11.02;;;;;;;6.47;85.14;101476.78;5065036;28;20029;-56
2022/04/26 03:54:27;;;;;;;21.13;10.88;;;;;;;6.47;85.33;101478.72;5063305;28;20047;-57
2022/04/26 03:56:52;;;;;;;21.88;12.07;;;;;;;6.45;84.90;101479.00;5064464;28;20082;-55
2022/04/26 03:59:21;;;;;;;20.35;11.20;;;;;;;6.45;85.47;101491.88;5062174;28;20028;-56
2022/04/26 04:01:47;;;;;;;21.08;12.27;;;;;;;6.40;85.76;101482.53;5065917;28;20475;-58
2022/04/26 04:04:12;;;;;;;20.10;11.85;;;;;;;6.43;85.69;101478.41;5063200;28;20028;-58
2022/04/26 04:06:38;;;;;;;21.20;12.10;;;;;;;6.41;86.49;101472.34;5062720;28;20628;-57
2022/04/26 04:09:03;;;;;;;20.23;12.27;;;;;;;6.44;86.40;101476.47;5064820;28;20960;-58
2022/04/26 04:11:29;;;;;;;22.77;13.07;;;;;;;6.47;85.79;101481.47;5063529;28;20040;-57
2022/04/26 04:13:54;;;;;;;22.45;12.50;;;;;;;6.42;86.53;101487.75;5062567;28;20033;-57
2022/04/26 04:16:20;;;;;;;21.45;13.52;;;;;;;6.44;86.79;101498.47;5063755;28;20349;-55
2022/04/26 04:21:29;;;;;;;23.17;13.13;;;;;;;6.46;86.68;101499.03;5063474;28;20052;-57
2022/04/26 04:23:54;;;;;;;23.13;13.35;;;;;;;6.40;87.29;101504.50;5063282;28;20024;-57
2022/04/26 04:26:19;;;;;;;20.17;12.43;;;;;;;6.48;86.43;101497.69;5062865;28;20119;-57
2022/04/26 04:28:44;;;;;;;21.55;12.80;;;;;;;6.45;86.76;101509.22;5062599;28;20506;-58
2022/04/26 04:31:10;;;;;;;22.65;14.90;;;;;;;6.38;87.28;101509.44;5064310;28;20027;-57
2022/04/26 04:33:36;;;;;;;21.35;12.93;;;;;;;6.42;87.48;101500.69;5062908;28;20029;-58
2022/04/26 04:36:01;;;;;;;20.75;13.45;;;;;;;6.42;87.05;101501.50;5063939;28;20448;-58
2022/04/26 04:38:27;;;;;;;22.75;13.13;;;;;;;6.40;87.35;101506.41;5061413;28;20020;-57
2022/04/26 04:40:54;;;;;;;22.13;12.80;;;;;;;6.38;87.79;101516.84;5064561;28;20052;-58
2022/04/26 04:43:19;;;;;;;22.80;13.48;;;;;;;6.39;87.53;101522.09;5063248;28;20115;-59
2022/04/26 04:45:44;;;;;;;22.42;12.32;;;;;;;6.41;87.84;101516.31;5063554;28;20112;-58
2022/04/26 04:48:10;;;;;;;21.45;13.13;;;;;;;6.37;88.08;101523.44;5060925;28;20040;-58
2022/04/26 04:50:35;;;;;;;22.17;12.68;;;;;;;6.30;88.16;101515.41;5062313;28;20033;-58
2022/04/26 04:53:01;;;;;;;22.55;14.38;;;;;;;6.30;88.91;101531.91;5062904;28;20041;-59
2022/04/26 04:55:26;;;;;;;23.42;13.23;;;;;;;6.33;88.50;101536.03;5061201;28;20078;-59
2022/04/26 04:57:52;;;;;;;22.73;13.10;;;;;;;6.33;88.30;101538.78;5061469;28;20028;-58
2022/04/26 05:00:17;;;;;;;21.45;13.10;;;;;;;6.37;88.39;101539.94;5061158;28;20372;-56
2022/04/26 05:02:42;;;;;;;23.05;13.02;;;;;;;6.39;88.52;101546.81;5062278;28;20024;-57
2022/04/26 05:05:08;;;;;;;21.90;12.85;;;;;;;6.43;87.97;101551.78;5061716;28;20028;-58
2022/04/26 05:07:33;;;;;;;22.65;13.20;;;;;;;6.37;88.43;101549.00;5060410;28;20086;-58
2022/04/26 05:09:59;;;;;;;20.92;12.32;;;;;;;6.36;88.41;101552.84;5062538;28;20538;-58
2022/04/26 05:12:24;;;;;;;22.05;14.18;;;;;;;6.36;88.59;101560.25;5061361;28;20032;-59
2022/04/26 05:14:49;;;;;;;23.10;13.07;;;;;;;6.40;88.37;101567.72;5061931;28;20028;-58
2022/04/26 05:17:14;;;;;;;23.15;13.98;;;;;;;6.40;89.11;101556.72;5060800;28;20029;-55
2022/04/26 05:19:40;;;;;;;21.90;13.10;;;;;;;6.45;88.16;101572.44;5061549;28;20035;-57
2022/04/26 05:22:09;;;;;;;21.42;13.15;;;;;;;6.47;87.93;101574.94;5061109;28;20464;-59
2022/04/26 05:24:53;;;;;;;21.42;13.43;;;;;;;6.48;88.53;101563.66;5062751;28;20052;-57
2022/04/26 05:27:19;;;;;;;;;;;;;;;6.53;87.22;101571.97;5061683;28;20533;-58
2022/04/26 05:29:44;;;;;;;21.95;12.93;;;;;;;6.50;87.83;101574.41;5061899;28;19912;-58
2022/04/26 05:32:10;;;;;;;21.83;14.18;;;;;;;6.47;88.09;101573.00;5060273;28;20070;-58
2022/04/26 05:34:35;;;;;;;23.15;13.30;;;;;;;6.49;87.78;101576.31;5059672;28;20025;-58
2022/04/26 05:37:00;;;;;;;21.02;12.90;;;;;;;6.53;87.77;101576.63;5059955;28;20033;-58
2022/04/26 05:39:25;;;;;;;23.77;13.25;;;;;;;6.51;88.15;101578.81;5061337;28;20056;-58
2022/04/26 05:41:51;;;;;;;21.92;13.38;;;;;;;6.55;88.07;101577.19;5060592;28;20025;-58
2022/04/26 05:44:16;;;;;;;22.40;13.70;;;;;;;6.50;88.39;101580.72;5060382;28;20032;-59
2022/04/26 05:46:41;;;;;;;24.10;13.38;;;;;;;6.54;88.20;101589.28;5059845;28;20058;-57
2022/04/26 05:49:06;;;;;;;22.20;13.27;;;;;;;6.58;88.03;101579.44;5061044;28;20045;-58
2022/04/26 05:51:32;;;;;;;23.35;13.70;;;;;;;6.63;88.33;101589.66;5060295;28;20036;-58
2022/04/26 05:53:57;;;;;;;22.23;13.27;;;;;;;6.64;88.39;101591.31;5060784;28;20089;-57
2022/04/26 05:56:22;;;;;;;22.63;13.40;;;;;;;6.64;88.37;101597.63;5060749;28;20336;-57
2022/04/26 05:58:47;;;;;;;22.55;13.50;;;;;;;6.69;88.57;101588.59;5060861;28;20033;-57
2022/04/26 06:01:13;;;;;;;21.73;13.25;;;;;;;6.76;87.82;101586.44;5061258;28;20083;-57
2022/04/26 06:03:38;;;;;;;23.30;14.25;;;;;;;6.76;87.87;101588.38;5060475;28;20100;-56
2022/04/26 06:06:03;;;;;;;24.10;13.73;;;;;;;6.74;88.38;101588.66;5059799;28;20021;-55
2022/04/26 06:08:28;;;;;;;23.13;14.02;;;;;;;6.80;87.47;101595.03;5060644;28;20270;-55
2022/04/26 06:10:54;;;;;;;22.90;13.95;;;;;;;6.80;88.26;101593.09;5060852;28;20036;-57
2022/04/26 06:13:19;;;;;;;25.42;14.98;;;;;;;6.85;87.78;101601.38;5060132;28;20041;-56
2022/04/26 06:15:45;;;;;;;24.02;14.15;;;;;;;6.91;88.15;101601.44;5059740;28;20042;-55
2022/04/26 06:18:10;;;;;;;23.67;13.88;;;;;;;6.98;87.51;101607.53;5060091;28;20027;-57
2022/04/26 06:20:35;;;;;;;23.92;14.35;;;;;;;7.00;87.34;101606.16;5059452;28;20364;-56
2022/04/26 06:23:02;;;;;;;23.77;14.70;;;;;;;7.05;87.49;101608.13;5060011;28;20036;-56
2022/04/26 06:25:27;;;;;;;24.90;15.27;;;;;;;7.12;87.38;101616.16;5059485;28;20036;-56
2022/04/26 06:27:52;;;;;;;25.20;15.38;;;;;;;7.16;87.20;101606.31;5059778;28;20149;-56
2022/04/26 06:30:18;;;;;;;24.77;15.55;;;;;;;7.23;87.14;101606.91;5058050;28;20438;-59
2022/04/26 06:32:43;;;;;;;24.90;16.08;;;;;;;7.27;86.51;101619.03;5058318;28;20033;-57
2022/04/26 06:35:09;;;;;;;25.88;16.05;;;;;;;7.29;85.94;101614.06;5060434;28;20173;-58
2022/04/26 06:37:35;;;;;;;24.60;16.17;;;;;;;7.38;86.05;101614.44;5060261;28;20550;-56
2022/04/26 06:40:00;;;;;;;23.65;15.15;;;;;;;7.47;85.62;101621.09;5059964;28;20104;-56
2022/04/26 06:42:25;;;;;;;23.92;14.98;;;;;;;7.55;85.45;101621.66;5058312;28;20149;-57
2022/04/26 06:44:50;;;;;;;23.60;14.52;;;;;;;7.67;84.58;101625.06;5057947;28;20376;-58
2022/04/26 06:47:16;;;;;;;24.85;15.50;;;;;;;7.72;84.47;101636.09;5058994;28;20099;-58
2022/04/26 06:49:41;;;;;;;26.52;18.23;;;;;;;7.85;84.63;101631.19;5058630;28;20358;-57
2022/04/26 06:52:06;;;;;;;23.58;15.32;;;;;;;7.91;83.39;101638.38;5057279;28;20376;-57
2022/04/26 06:54:32;;;;;;;24.13;16.23;;;;;;;7.94;83.66;101630.41;5057238;28;20064;-56
2022/04/26 06:56:57;;;;;;;24.45;16.00;;;;;;;8.05;82.37;101638.72;5073660;28;20325;-57
2022/04/26 06:59:22;;;;;;;23.90;15.45;;;;;;;7.97;82.97;101638.13;5057865;28;20036;-57
2022/04/26 07:01:52;;;;;;;24.55;15.68;;;;;;;8.04;82.47;101648.06;5058009;28;20082;-58
2022/04/26 07:04:19;;;;;;;24.25;15.85;;;;;;;8.08;82.05;101636.25;5057856;28;20394;-57
2022/04/26 07:06:45;;;;;;;23.67;15.43;;;;;;;8.16;81.59;101642.34;5058429;28;20075;-57
2022/04/26 07:09:10;;;;;;;24.15;16.05;;;;;;;8.18;80.33;101648.41;5057316;28;20044;-58
2022/04/26 07:11:36;;;;;;;24.88;15.27;;;;;;;8.20;80.05;101643.44;5057220;28;20123;-57
2022/04/26 07:14:01;;;;;;;23.58;15.25;;;;;;;8.22;80.83;101639.31;5057798;28;20108;-57
2022/04/26 07:16:26;;;;;;;23.60;14.23;;;;;;;8.25;79.66;101649.00;5058526;28;20073;-58
2022/04/26 07:18:52;;;;;;;24.25;15.60;;;;;;;8.20;79.24;101646.22;5055350;28;20087;-55
2022/04/26 07:21:18;;;;;;;26.55;14.98;;;;;;;8.35;79.54;101648.19;5067943;28;20031;-56
2022/04/26 07:23:43;;;;;;;22.85;14.98;;;;;;;8.27;78.79;101647.63;5055773;28;20143;-56
2022/04/26 07:26:08;;;;;;;23.98;14.57;;;;;;;8.36;78.01;101647.09;5060792;28;20111;-57
2022/04/26 07:28:33;;;;;;;23.85;14.95;;;;;;;8.49;78.66;101654.03;5054661;28;20146;-57
2022/04/26 07:30:59;;;;;;;24.83;15.13;;;;;;;8.66;78.43;101651.88;5055517;28;20483;-56
2022/04/26 07:36:09;;;;;;;23.10;14.40;;;;;;;8.79;76.84;101680.03;5060197;28;20407;-58
2022/04/26 07:38:35;;;;;;;23.63;14.57;;;;;;;8.79;76.70;101664.28;5056122;28;20040;-57
2022/04/26 07:41:01;;;;;;;21.38;14.15;;;;;;;8.94;76.04;101676.47;5056669;28;20043;-57
2022/04/26 07:43:26;;;;;;;22.45;14.55;;;;;;;9.00;74.92;101665.16;5060793;28;20029;-57
2022/04/26 07:45:51;;;;;;;23.70;13.98;;;;;;;9.06;75.29;101668.75;5054685;28;20098;-58
2022/04/26 07:48:17;;;;;;;22.23;13.73;;;;;;;9.17;74.74;101669.56;5064143;28;20033;-57
2022/04/26 07:50:45;;;;;;;23.70;14.25;;;;;;;9.12;73.57;101678.69;5052778;28;20039;-58
2022/04/26 07:53:10;;;;;;;22.15;14.15;;;;;;;9.12;74.06;101684.22;5059163;28;20056;-57
2022/04/26 07:55:36;;;;;;;24.25;14.10;;;;;;;9.11;74.07;101666.00;5059810;28;20093;-57
2022/04/26 07:58:02;;;;;;;23.10;14.25;;;;;;;9.19;73.49;101687.50;5057209;28;20025;-57
2022/04/26 08:00:27;;;;;;;22.48;13.18;;;;;;;9.16;73.25;101681.72;5058355;28;20025;-58
2022/04/26 08:02:52;;;;;;;23.67;13.45;;;;;;;9.29;72.50;101686.69;5062187;28;20048;-57
2022/04/26 08:05:18;;;;;;;22.77;14.15;;;;;;;9.26;73.14;101684.47;5060918;28;20043;-58
2022/04/26 08:07:44;;;;;;;23.30;14.32;;;;;;;9.35;73.90;101698.56;5060835;28;20490;-58
2022/04/26 08:10:11;;;;;;;24.30;14.57;;;;;;;9.37;72.86;101696.34;5055954;28;20021;-57
2022/04/26 08:12:37;;;;;;;22.88;13.82;;;;;;;9.30;72.88;101699.41;5063829;28;20040;-57
2022/04/26 08:15:03;;;;;;;21.55;14.60;;;;;;;9.29;73.82;101697.75;5063425;28;20107;-58
2022/04/26 08:17:28;;;;;;;22.08;14.82;;;;;;;9.32;73.51;101696.34;5057361;28;20027;-58
2022/04/26 08:19:54;;;;;;;23.85;14.45;;;;;;;9.37;72.40;101701.88;5055281;28;20037;-57
2022/04/26 08:22:19;;;;;;;24.00;14.70;;;;;;;9.44;71.54;101718.16;5072658;28;20044;-60
2022/04/26 08:27:30;;;;;;;23.45;13.05;;;;;;;9.31;72.12;101714.03;5052798;28;20502;-58
2022/04/26 08:29:57;;;;;;;21.38;14.07;;;;;;;9.42;72.84;101712.94;5052593;28;20159;-57
2022/04/26 08:32:26;;;;;;;23.23;13.77;;;;;;;9.52;72.32;101718.44;5071319;28;20027;-58
2022/04/26 08:34:55;;;;;;;23.40;13.45;;;;;;;9.62;71.79;101720.34;5067879;28;20033;-57
2022/04/26 08:37:21;;;;;;;21.95;13.27;;;;;;;9.69;71.29;101720.06;5061368;28;20086;-58
2022/04/26 08:39:48;;;;;;;22.15;13.20;;;;;;;9.71;70.01;101728.06;5052837;28;20029;-57
2022/04/26 08:42:14;;;;;;;20.80;13.57;;;;;;;9.67;70.59;101725.88;5054247;28;20029;-57
2022/04/26 08:44:40;;;;;;;23.45;12.95;;;;;;;9.72;70.17;101721.44;5068132;28;20040;-58
2022/04/26 08:52:50;;;;;;;21.75;13.13;;;;;;;9.83;70.06;101729.44;5070374;28;20474;-57
2022/04/26 08:55:16;;;;;;;21.10;12.93;;;;;;;9.77;69.13;101733.31;5070591;28;20016;-57
2022/04/26 08:57:42;;;;;;;21.38;12.50;;;;;;;9.69;68.87;101722.84;5071790;28;20016;-56
2022/04/26 09:00:11;;;;;;;22.30;13.18;;;;;;;9.76;69.03;101723.38;5071824;28;20036;-57
2022/04/26 09:02:37;;;;;;;20.75;12.77;;;;;;;9.84;69.40;101728.31;5071938;28;20032;-56
2022/04/26 09:05:13;;;;;;;23.63;12.88;;;;;;;9.97;69.29;101717.81;5071586;28;20027;-56
2022/04/26 09:07:39;;;;;;;22.08;12.80;;;;;;;10.11;68.35;101723.56;5068723;28;20054;-56
2022/04/26 09:10:13;;;;;;;23.20;12.38;;;;;;;10.33;67.23;101733.44;5071473;28;20021;-58
2022/04/26 09:13:07;;;;;;;21.10;12.75;;;;;;;10.50;66.97;101738.66;5068723;28;20115;-58
2022/04/26 09:15:44;;;;;;;22.65;12.80;;;;;;;10.72;67.83;101732.75;5060861;28;20041;-57
2022/04/26 09:18:30;;;;;;;21.45;13.32;;;;;;;11.08;65.79;101741.63;5061098;28;20040;-57
2022/04/26 09:20:58;;;;;;;21.73;12.18;;;;;;;11.26;63.57;101735.72;5062179;28;20032;-57
2022/04/26 09:23:28;;;;;;;20.58;12.30;;;;;;;11.26;62.79;101739.28;5071832;28;20111;-57
2022/04/26 09:26:08;;;;;;;20.60;11.90;;;;;;;11.19;63.89;101741.56;5069565;28;20036;-58
2022/04/26 09:28:38;;;;;;;19.80;11.70;;;;;;;11.18;62.77;101749.06;5073982;28;20533;-57
2022/04/26 09:31:19;;;;;;;20.60;11.25;;;;;;;11.13;63.39;101743.53;5074320;28;20024;-58
2022/04/26 09:33:49;;;;;;;20.30;11.98;;;;;;;11.08;62.05;101738.88;5074096;28;20036;-58
2022/04/26 09:36:18;;;;;;;22.27;12.05;;;;;;;11.15;62.44;101734.94;5073550;28;20456;-58
2022/04/26 09:38:55;;;;;;;20.33;11.32;;;;;;;11.20;62.28;101740.47;5073496;28;20056;-58
2022/04/26 09:41:21;;;;;;;20.33;10.65;;;;;;;11.16;60.41;101753.22;5073751;28;20032;-58
2022/04/26 09:44:07;;;;;;;20.58;10.93;;;;;;;10.86;61.92;101758.66;5073618;28;20119;-58
2022/04/26 09:46:47;;;;;;;20.23;11.30;;;;;;;10.77;62.73;101758.44;5071938;28;20086;-58
2022/04/26 09:49:14;;;;;;;20.30;11.18;;;;;;;10.69;61.04;101755.44;5072456;28;20051;-58
2022/04/26 09:51:40;;;;;;;19.80;10.43;;;;;;;10.60;60.99;101767.13;5072569;28;20471;-58
2022/04/26 09:54:06;;;;;;;18.90;10.55;;;;;;;10.54;60.07;101765.47;5072766;28;20407;-58
2022/04/26 09:56:33;;;;;;;19.70;10.40;;;;;;;10.51;60.98;101766.06;5072884;28;20024;-58
2022/04/26 09:59:00;;;;;;;19.88;10.90;;;;;;;10.57;60.62;101787.03;5072775;28;20028;-58
2022/04/26 10:01:47;;;;;;;19.15;10.75;;;;;;;10.63;60.64;101775.97;5073123;28;20085;-58
2022/04/26 10:04:21;;;;;;;19.83;10.65;;;;;;;10.70;60.48;101777.28;5073031;28;20121;-58
2022/04/26 10:06:51;;;;;;;20.48;10.98;;;;;;;10.94;60.51;101779.41;5073214;28;20475;-56
2022/04/26 10:09:17;;;;;;;19.27;10.20;;;;;;;11.10;58.70;101793.13;5072887;28;20055;-57
2022/04/26 10:11:42;;;;;;;20.48;10.75;;;;;;;11.19;57.38;101781.16;5072771;28;20028;-57
2022/04/26 10:14:10;;;;;;;18.73;11.07;;;;;;;11.32;57.63;101782.47;5072845;28;20433;-56
2022/04/26 10:16:37;;;;;;;19.95;10.90;;;;;;;11.45;56.88;101785.69;5066033;28;20032;-56
2022/04/26 10:19:09;;;;;;;20.23;10.93;;;;;;;11.58;56.51;101792.50;5064126;28;20115;-58
2022/04/26 10:21:40;;;;;;;21.13;11.95;;;;;;;11.76;56.67;101800.13;5060235;28;20021;-56
2022/04/26 10:24:19;;;;;;;19.95;10.88;;;;;;;11.86;57.41;101794.47;5056285;28;20034;-57
2022/04/26 10:26:45;;;;;;;20.50;11.18;;;;;;;12.12;56.50;101790.66;5061268;28;20112;-57
2022/04/26 10:29:13;;;;;;;19.88;10.55;;;;;;;12.38;55.50;101782.03;5053943;28;20089;-56
2022/04/26 10:31:57;;;;;;;19.80;11.23;;;;;;;12.44;54.06;101783.66;5062898;28;20391;-56
2022/04/26 10:34:31;;;;;;;21.80;11.68;;;;;;;12.44;54.67;101780.88;5051141;28;20108;-57
2022/04/26 10:36:59;;;;;;;21.77;11.05;;;;;;;12.52;54.22;101790.47;5060552;28;20033;-57
2022/04/26 10:39:36;;;;;;;19.95;11.13;;;;;;;12.55;55.19;101790.75;5070269;28;20418;-57
2022/04/26 10:42:11;;;;;;;20.25;10.95;;;;;;;12.51;53.98;101792.44;5063546;28;20039;-56
2022/04/26 10:44:47;;;;;;;20.17;11.18;;;;;;;12.69;54.80;101788.06;5062623;28;20040;-57
2022/04/26 10:47:14;;;;;;;19.27;11.50;;;;;;;12.76;53.58;101798.78;5051070;28;20036;-56
2022/04/26 10:49:39;;;;;;;19.85;10.95;;;;;;;12.62;53.79;101793.13;5067737;28;20056;-57
2022/04/26 10:52:13;;;;;;;22.00;11.47;;;;;;;13.00;54.35;101790.41;5070025;28;20320;-57
2022/04/26 10:54:45;;;;;;;18.98;11.20;;;;;;;13.19;51.99;101800.69;5059670;28;20802;-57
2022/04/26 10:57:10;;;;;;;19.15;10.63;;;;;;;13.25;53.19;101811.44;5067641;28;20039;-57
2022/04/26 10:59:40;;;;;;;21.42;10.93;;;;;;;13.33;51.32;101797.97;5062806;28;20029;-58
2022/04/26 11:02:10;;;;;;;19.92;10.90;;;;;;;13.36;51.56;101789.91;5085794;28;20032;-56
2022/04/26 11:04:35;;;;;;;19.27;10.40;;;;;;;13.32;50.52;101808.28;5065626;28;20060;-57
2022/04/26 11:07:14;;;;;;;19.80;11.25;;;;;;;13.19;51.93;101797.91;5055179;28;20033;-56
2022/04/26 11:09:53;;;;;;;20.25;11.45;;;;;;;13.16;51.82;101802.13;5051352;28;20086;-56
2022/04/26 11:12:20;;;;;;;21.17;11.35;;;;;;;13.14;52.36;101809.94;5051108;28;20037;-56
2022/04/26 11:14:46;;;;;;;19.98;10.55;;;;;;;13.04;51.74;101808.13;5067510;28;20112;-56
2022/04/26 11:17:14;;;;;;;21.63;11.68;;;;;;;12.95;51.87;101805.19;5056312;28;20029;-56
2022/04/26 11:19:47;;;;;;;19.52;11.38;;;;;;;12.91;51.88;101800.53;5065981;28;20029;-57
2022/04/26 11:22:13;;;;;;;22.13;12.00;;;;;;;13.07;51.60;101793.66;5059054;28;20456;-56
2022/04/26 11:30:10;;;;;;;19.25;11.15;;;;;;;13.29;51.12;101794.16;5049816;28;20047;-57
2022/04/26 11:32:44;;;;;;;21.40;12.07;;;;;;;13.37;50.29;101821.28;5054298;28;20466;-60
2022/04/26 11:35:10;;;;;;;20.17;11.85;;;;;;;13.36;50.19;101795.44;5053891;28;20055;-54
2022/04/26 11:37:43;;;;;;;19.80;11.65;;;;;;;13.49;50.81;101807.78;5065193;28;20398;-56
2022/04/26 11:40:09;;;;;;;21.40;11.35;;;;;;;13.72;50.13;101807.94;5064657;28;20123;-56
2022/04/26 11:42:34;;;;;;;19.58;11.18;;;;;;;13.76;48.56;101808.16;5072333;28;20123;-57
2022/04/26 11:45:02;;;;;;;19.13;10.85;;;;;;;13.71;48.47;101807.13;5068031;28;20036;-57
2022/04/26 11:47:37;;;;;;;21.15;11.93;;;;;;;13.65;49.61;101808.34;5056878;28;20060;-57
2022/04/26 11:50:16;;;;;;;21.80;11.95;;;;;;;13.77;50.08;101796.75;5053665;28;20037;-57
2022/04/26 11:52:45;;;;;;;20.80;11.70;;;;;;;14.02;48.33;101811.34;5063766;28;20083;-57
2022/04/26 11:55:22;;;;;;;20.30;12.00;;;;;;;13.92;49.71;101817.06;5068444;28;20480;-58
2022/04/26 11:57:48;;;;;;;22.13;12.55;;;;;;;13.75;48.57;101821.25;5073412;28;20056;-57
2022/04/26 12:00:16;;;;;;;19.88;11.45;;;;;;;13.56;50.04;101819.34;5060015;28;20514;-54
2022/04/26 12:02:43;;;;;;;19.30;12.05;;;;;;;13.28;49.90;101826.69;5061813;28;20067;-58
2022/04/26 12:05:09;;;;;;;21.60;12.98;;;;;;;13.48;50.30;101821.97;5060720;28;20037;-58
2022/04/26 12:07:35;;;;;;;19.63;12.07;;;;;;;13.52;49.84;101815.50;5053883;28;20033;-55
2022/04/26 12:10:00;;;;;;;21.33;12.43;;;;;;;13.71;49.64;101812.69;5068950;28;20129;-57
2022/04/26 12:12:26;;;;;;;18.85;11.68;;;;;;;13.86;48.52;101817.19;5053457;28;20039;-58
2022/04/26 12:14:53;;;;;;;19.55;11.98;;;;;;;13.84;48.31;101799.13;5055692;28;20025;-57
2022/04/26 12:17:22;;;;;;;18.65;10.85;;;;;;;13.99;46.15;101815.56;5066917;28;20029;-57
2022/04/26 12:19:50;;;;;;;21.02;12.07;;;;;;;14.07;46.14;101813.19;5064168;28;20032;-57
2022/04/26 12:22:17;;;;;;;19.00;11.25;;;;;;;14.03;45.40;101824.94;5067699;28;20156;-57
2022/04/26 12:24:48;;;;;;;20.02;11.32;;;;;;;13.99;46.37;101792.47;5053362;28;20033;-57
2022/04/26 12:27:16;;;;;;;22.33;11.75;;;;;;;13.91;46.60;101807.06;5058453;28;20060;-57
2022/04/26 12:29:42;;;;;;;21.00;12.15;;;;;;;14.07;46.52;101815.97;5073426;28;20174;-59
2022/04/26 12:32:16;;;;;;;20.02;11.25;;;;;;;14.06;45.65;101806.81;5057315;28;20104;-57
2022/04/26 12:34:52;;;;;;;;;;;;;;;14.09;45.66;101808.97;5054109;28;20060;-57
2022/04/26 12:37:23;;;;;;;19.92;11.40;;;;;;;14.02;45.57;101823.31;5066158;28;19913;-58
2022/04/26 12:39:52;;;;;;;17.48;10.38;;;;;;;13.88;44.13;101826.06;5056809;28;20040;-57
2022/04/26 12:42:26;;;;;;;18.40;10.95;;;;;;;13.89;44.50;101824.88;5057665;28;20044;-57
2022/04/26 12:44:59;;;;;;;19.27;10.75;;;;;;;13.86;44.89;101819.13;5053670;28;20083;-57
2022/04/26 12:50:31;;;;;;;19.08;11.05;;;;;;;14.27;44.39;101821.16;5053150;28;20128;-58
2022/04/26 12:53:02;;;;;;;18.60;11.50;;;;;;;14.59;44.71;101815.81;5052694;28;20064;-57
2022/04/26 12:55:38;;;;;;;20.23;10.65;;;;;;;14.91;44.38;101814.06;5052623;28;20025;-57
2022/04/26 12:58:05;;;;;;;18.92;11.05;;;;;;;14.92;43.15;101807.38;5073005;28;20093;-57
2022/04/26 13:00:31;;;;;;;20.20;11.10;;;;;;;15.08;42.20;101819.81;5072755;28;20368;-57
2022/04/26 13:03:02;;;;;;;19.55;10.98;;;;;;;15.11;41.72;101810.00;5073141;28;20090;-58
2022/04/26 13:05:29;;;;;;;18.10;10.10;;;;;;;15.12;41.11;101812.44;5072842;28;20368;-58
2022/04/26 13:07:55;;;;;;;18.52;10.30;;;;;;;15.20;42.38;101807.28;5072847;28;20772;-58
2022/04/26 13:10:20;;;;;;;18.50;9.85;;;;;;;15.40;42.94;101809.56;5072898;28;20032;-58
2022/04/26 13:12:46;;;;;;;19.48;10.55;;;;;;;15.44;41.10;101818.97;5071905;28;20188;-58
2022/04/26 13:15:15;;;;;;;18.77;10.27;;;;;;;15.49;41.34;101811.63;5072004;28;20387;-57
2022/04/26 13:17:41;;;;;;;18.35;10.00;;;;;;;15.32;40.82;101801.97;5059176;28;20055;-57
2022/04/26 13:20:07;;;;;;;18.48;9.73;;;;;;;15.18;42.04;101810.38;5059588;28;20693;-58
2022/04/26 13:22:34;;;;;;;18.15;10.10;;;;;;;15.19;43.71;101803.66;5068945;28;20076;-58
2022/04/26 13:25:00;;;;;;;19.65;10.15;;;;;;;15.11;42.64;101808.00;5068478;28;20036;-57
2022/04/26 13:27:25;;;;;;;18.35;10.27;;;;;;;15.26;43.23;101804.03;5051944;28;20029;-58
2022/04/26 13:29:50;;;;;;;19.73;10.50;;;;;;;15.25;42.16;101805.22;5052592;28;20129;-57
2022/04/26 13:32:17;;;;;;;19.05;10.23;;;;;;;15.38;42.43;101811.03;5066642;28;20482;-57
2022/04/26 13:34:43;;;;;;;19.05;10.13;;;;;;;15.35;42.23;101818.06;5062677;28;20352;-57
2022/04/26 13:37:09;;;;;;;18.33;10.15;;;;;;;15.21;42.72;101806.97;5064355;28;20025;-57
2022/04/26 13:39:35;;;;;;;17.60;9.55;;;;;;;14.89;42.48;101827.47;5072076;28;20357;-58
2022/04/26 13:42:00;;;;;;;18.88;10.48;;;;;;;14.57;42.70;101809.72;5070017;28;20121;-57
2022/04/26 13:44:26;;;;;;;19.58;10.48;;;;;;;14.45;43.45;101808.28;5063066;28;20476;-58
2022/04/26 13:46:53;;;;;;;18.88;9.90;;;;;;;14.72;43.71;101805.81;5051601;28;20041;-58
2022/04/26 13:49:18;;;;;;;21.33;10.23;;;;;;;14.79;42.79;101814.56;5054081;28;20103;-58
2022/04/26 13:51:43;;;;;;;17.50;10.25;;;;;;;14.83;42.96;101821.19;5062620;28;20432;-56
2022/04/26 13:54:09;;;;;;;17.52;9.48;;;;;;;14.78;42.88;101810.97;5061746;28;20060;-56
2022/04/26 13:56:34;;;;;;;19.30;10.55;;;;;;;14.61;42.76;101819.94;5061123;28;20051;-56
2022/04/26 13:59:00;;;;;;;19.80;10.15;;;;;;;14.78;42.52;101838.84;5056053;28;20038;-55
2022/04/26 14:01:25;;;;;;;18.70;10.18;;;;;;;14.81;41.93;101815.09;5059907;28;20032;-57
2022/04/26 14:03:50;;;;;;;18.20;10.32;;;;;;;14.94;42.14;101827.34;5069790;28;20056;-57
2022/04/26 14:06:18;;;;;;;18.42;9.88;;;;;;;14.73;41.86;101833.38;5069446;28;20113;-57
2022/04/26 14:08:48;;;;;;;17.08;9.52;;;;;;;14.62;42.34;101816.00;5062081;28;20082;-56
2022/04/26 14:11:14;;;;;;;18.85;10.23;;;;;;;14.56;42.57;101822.00;5069266;28;20448;-58
2022/04/26 14:21:47;;;;;;;19.13;9.32;;;;;;;14.52;42.67;101821.78;5057284;28;20032;-57
2022/04/26 14:21:52;;;;;;;;;;;;;;;14.84;41.47;101822.00;5067011;28;20109;-57
2022/04/26 14:24:17;;;;;;;19.77;9.20;;;;;;;14.63;41.37;101823.22;5052830;28;20397;-58
2022/04/26 14:26:42;;;;;;;17.88;9.65;;;;;;;14.64;41.60;101835.22;5057783;28;20032;-60
2022/04/26 14:29:08;;;;;;;18.52;9.52;;;;;;;14.76;41.80;101829.97;5069916;28;20033;-58
2022/04/26 14:31:35;;;;;;;18.13;9.40;;;;;;;14.85;40.80;101835.63;5061095;28;20036;-57
2022/04/26 14:34:01;;;;;;;18.63;9.23;;;;;;;14.71;41.50;101818.09;5051100;28;20029;-58
2022/04/26 14:36:26;;;;;;;17.17;9.45;;;;;;;14.61;41.75;101821.91;5062282;28;20475;-58
2022/04/26 14:38:51;;;;;;;19.10;9.40;;;;;;;14.56;41.55;101847.88;5071086;28;20129;-55
2022/04/26 14:41:17;;;;;;;19.73;9.30;;;;;;;14.39;41.62;101830.97;5062912;28;20044;-57
2022/04/26 14:43:42;;;;;;;17.60;9.50;;;;;;;14.32;42.35;101832.19;5067265;28;20539;-58
2022/04/26 14:46:07;;;;;;;18.27;9.40;;;;;;;14.32;41.71;101839.72;5070978;28;20129;-57
2022/04/26 14:48:32;;;;;;;19.65;9.25;;;;;;;14.21;42.62;101836.31;5051841;28;20033;-58
2022/04/26 14:50:58;;;;;;;17.70;9.50;;;;;;;14.22;42.10;101840.72;5059906;28;20085;-57
2022/04/26 14:53:23;;;;;;;18.27;9.48;;;;;;;14.02;42.67;101848.34;5051359;28;20125;-54
2022/04/26 14:55:49;;;;;;;17.33;9.15;;;;;;;13.80;44.11;101846.19;5050945;28;20033;-56
2022/04/26 14:58:14;;;;;;;17.50;9.57;;;;;;;13.79;43.88;101838.16;5051305;28;20032;-56
2022/04/26 15:00:41;;;;;;;17.50;9.07;;;;;;;13.88;43.45;101841.91;5051298;28;20032;-56
2022/04/26 15:03:06;;;;;;;17.02;9.40;;;;;;;13.83;44.30;101840.03;5050790;28;20076;-57
2022/04/26 15:05:31;;;;;;;18.88;9.70;;;;;;;13.86;44.06;101838.59;5057194;28;20020;-57
2022/04/26 15:10:40;;;;;;;19.00;9.50;;;;;;;14.00;43.47;101850.59;5068531;28;20043;-57
2022/04/26 15:18:35;;;;;;;18.50;9.50;;;;;;;13.88;42.94;101841.91;5068440;28;20506;-57
2022/04/26 15:21:02;;;;;;;19.50;9.00;;;;;;;13.93;43.37;101838.19;5054162;28;20056;-58
2022/04/26 15:23:28;;;;;;;18.35;9.07;;;;;;;13.93;42.56;101839.03;5051290;28;20100;-57
2022/04/26 15:25:55;;;;;;;17.77;9.18;;;;;;;13.86;42.53;101836.66;5050761;28;20428;-57
2022/04/26 15:28:22;;;;;;;17.30;8.98;;;;;;;13.71;43.22;101850.78;5050744;28;20111;-57